Time;durP1;ratioP1;P1;durP2;ratioP2;P2;SDS_P1;SDS_P2;PMS_P1;PMS_P2;Temp;Humidity;BMP_temperature;BMP_pressure;BME280_temperature;BME280_humidity;BME280_pressure;Samples;Min_cycle;Max_cycle;Signal;HPM_P1;HPM_P2
2021/07/05 00:00:58;;;;;;;6.30;4.60;;;15.20;99.90;;;;;;5034307;28;20167;-69
2021/07/05 00:03:24;;;;;;;5.90;5.40;;;15.20;99.90;;;;;;5033949;28;20172;-69
2021/07/05 00:05:49;;;;;;;4.30;3.93;;;15.20;99.90;;;;;;5033778;28;20163;-69
2021/07/05 00:08:15;;;;;;;4.83;4.43;;;15.20;99.90;;;;;;5035082;28;20174;-69
2021/07/05 00:10:40;;;;;;;4.80;4.07;;;15.20;99.90;;;;;;5053521;28;20191;-69
2021/07/05 00:13:06;;;;;;;5.47;4.10;;;15.20;99.90;;;;;;5053943;28;20174;-69
2021/07/05 00:15:33;;;;;;;4.30;3.90;;;15.20;99.90;;;;;;5053913;28;20268;-69
2021/07/05 00:18:03;;;;;;;4.40;4.00;;;15.20;99.90;;;;;;5053618;28;20168;-69
2021/07/05 00:20:31;;;;;;;5.10;4.60;;;15.10;99.90;;;;;;5053372;28;20393;-69
2021/07/05 00:22:57;;;;;;;5.37;4.13;;;15.20;99.90;;;;;;5053427;28;20391;-69
2021/07/05 00:25:23;;;;;;;5.00;4.50;;;15.10;99.90;;;;;;5052414;28;20453;-69
2021/07/05 00:27:49;;;;;;;5.30;4.70;;;15.10;99.90;;;;;;5053310;28;20909;-69
2021/07/05 00:30:16;;;;;;;5.50;4.90;;;15.10;99.90;;;;;;5038420;28;20466;-69
2021/07/05 00:32:43;;;;;;;6.53;5.37;;;15.10;99.90;;;;;;5033143;28;20505;-69
2021/07/05 00:35:10;;;;;;;5.43;4.80;;;15.10;99.90;;;;;;5050353;28;20411;-69
2021/07/05 00:37:35;;;;;;;5.30;4.80;;;15.10;99.90;;;;;;5053003;28;20485;-69
2021/07/05 00:40:02;;;;;;;7.33;4.93;;;15.10;99.90;;;;;;5052899;28;20484;-69
2021/07/05 00:42:27;;;;;;;7.87;6.37;;;15.10;99.90;;;;;;5049506;28;20186;-69
2021/07/05 00:44:53;;;;;;;7.60;6.00;;;15.10;99.90;;;;;;5033283;28;20393;-69
2021/07/05 00:47:19;;;;;;;7.33;6.17;;;15.10;99.90;;;;;;5032866;28;20160;-69
2021/07/05 00:49:44;;;;;;;7.97;7.17;;;15.10;99.90;;;;;;5032922;28;20469;-69
2021/07/05 00:52:10;;;;;;;7.37;6.67;;;15.10;99.90;;;;;;5033048;28;20432;-69
2021/07/05 00:54:36;;;;;;;6.53;5.87;;;15.10;99.90;;;;;;5032932;28;20157;-69
2021/07/05 00:57:02;;;;;;;4.83;4.33;;;15.10;99.90;;;;;;5032963;28;20394;-69
2021/07/05 00:59:28;;;;;;;5.40;4.73;;;15.10;99.90;;;;;;5039854;28;20328;-69
2021/07/05 01:01:54;;;;;;;5.23;4.30;;;15.10;99.90;;;;;;5032660;28;20476;-69
2021/07/05 01:04:19;;;;;;;6.33;3.83;;;15.10;99.90;;;;;;5032579;28;20245;-69
2021/07/05 01:06:45;;;;;;;4.97;4.47;;;15.10;99.90;;;;;;5032725;28;20172;-69
2021/07/05 01:09:10;;;;;;;5.10;3.90;;;15.10;99.90;;;;;;5032488;28;20173;-69
2021/07/05 01:11:36;;;;;;;4.50;3.87;;;15.10;99.90;;;;;;5032769;28;20163;-69
2021/07/05 01:14:02;;;;;;;4.00;3.60;;;15.10;99.90;;;;;;5033148;28;20222;-69
2021/07/05 01:16:27;;;;;;;3.90;3.50;;;15.10;99.90;;;;;;5033198;28;20186;-69
2021/07/05 01:18:53;;;;;;;4.23;3.83;;;15.10;99.90;;;;;;5032360;28;20208;-69
2021/07/05 01:21:19;;;;;;;3.20;2.90;;;15.10;99.90;;;;;;5032416;28;20641;-69
2021/07/05 01:23:44;;;;;;;3.60;3.30;;;15.10;99.90;;;;;;5032303;28;20163;-69
2021/07/05 01:26:10;;;;;;;3.77;3.10;;;15.10;99.90;;;;;;5033050;28;20171;-69
2021/07/05 01:28:36;;;;;;;4.27;3.33;;;15.10;99.90;;;;;;5032451;28;20171;-69
2021/07/05 01:31:01;;;;;;;3.80;3.30;;;15.10;99.90;;;;;;5032116;28;20251;-69
2021/07/05 01:33:27;;;;;;;3.70;3.00;;;15.10;99.90;;;;;;5043534;28;20655;-69
2021/07/05 01:35:52;;;;;;;3.10;2.83;;;15.10;99.90;;;;;;5051406;28;20174;-69
2021/07/05 01:38:21;;;;;;;7.13;3.43;;;15.10;99.90;;;;;;5052294;28;20193;-69
2021/07/05 01:43:30;;;;;;;8.20;3.80;;;15.10;99.90;;;;;;5069691;28;20521;-69
2021/07/05 01:45:56;;;;;;;4.40;3.47;;;15.10;99.90;;;;;;5069333;28;20904;-69
2021/07/05 01:48:22;;;;;;;10.10;4.67;;;15.10;99.90;;;;;;5069516;28;20161;-69
2021/07/05 01:50:47;;;;;;;4.30;3.50;;;15.10;99.90;;;;;;5063131;28;20442;-69
2021/07/05 01:53:13;;;;;;;3.30;2.93;;;15.10;99.90;;;;;;5049438;28;20393;-70
2021/07/05 01:55:39;;;;;;;3.77;3.20;;;15.10;99.90;;;;;;5049427;28;20160;-69
2021/07/05 01:58:07;;;;;;;7.63;4.53;;;15.10;99.90;;;;;;5051124;28;20161;-69
2021/07/05 02:00:34;;;;;;;7.30;4.67;;;15.10;99.90;;;;;;5069011;28;20591;-70
2021/07/05 02:03:00;;;;;;;6.77;4.30;;;15.10;99.90;;;;;;5068937;28;20514;-70
2021/07/05 02:05:27;;;;;;;5.90;3.83;;;15.10;99.90;;;;;;5069363;28;20391;-70
2021/07/05 02:07:53;;;;;;;4.63;3.77;;;15.10;99.90;;;;;;5062006;28;20412;-69
2021/07/05 02:10:23;;;;;;;4.47;2.90;;;15.20;99.90;;;;;;5049690;28;20936;-71
2021/07/05 02:12:49;;;;;;;5.93;2.97;;;15.30;99.90;;;;;;5049048;28;20404;-71
2021/07/05 02:15:16;;;;;;;2.80;2.07;;;15.30;99.90;;;;;;5048784;28;20401;-71
2021/07/05 02:17:42;;;;;;;3.83;2.80;;;15.40;99.90;;;;;;5048812;28;20428;-71
2021/07/05 02:20:11;;;;;;;2.70;2.50;;;15.40;99.90;;;;;;5048818;28;20397;-71
2021/07/05 02:22:37;;;;;;;2.30;2.20;;;15.50;99.90;;;;;;5048945;28;20444;-71
2021/07/05 02:25:07;;;;;;;6.50;2.53;;;15.50;99.90;;;;;;5049380;28;20419;-70
2021/07/05 02:27:33;;;;;;;3.40;2.10;;;15.50;99.90;;;;;;5049454;28;20213;-70
2021/07/05 02:29:59;;;;;;;2.47;2.27;;;15.60;99.90;;;;;;5065199;28;20413;-71
2021/07/05 02:32:25;;;;;;;2.57;2.20;;;15.60;99.90;;;;;;5068684;28;20174;-71
2021/07/05 02:34:50;;;;;;;4.30;2.43;;;15.70;99.90;;;;;;5068332;28;20467;-70
2021/07/05 02:37:16;;;;;;;3.47;2.23;;;15.70;99.90;;;;;;5068841;28;20576;-70
2021/07/05 02:39:41;;;;;;;3.87;2.60;;;15.80;99.90;;;;;;5068403;28;20208;-70
2021/07/05 02:42:07;;;;;;;1.67;1.57;;;15.80;99.90;;;;;;5067520;28;20557;-71
2021/07/05 02:44:33;;;;;;;5.33;2.33;;;15.80;99.90;;;;;;5068374;28;20581;-71
2021/07/05 02:46:58;;;;;;;2.53;2.17;;;15.90;99.90;;;;;;5069011;28;20175;-69
2021/07/05 02:49:24;;;;;;;2.70;2.13;;;15.90;99.90;;;;;;5068166;28;20153;-69
2021/07/05 02:51:49;;;;;;;2.30;2.10;;;16.00;99.90;;;;;;5068081;28;20561;-69
2021/07/05 02:54:15;;;;;;;3.00;2.40;;;16.00;99.90;;;;;;5058291;28;20249;-69
2021/07/05 02:56:41;;;;;;;2.63;2.43;;;16.10;99.90;;;;;;5054930;28;20249;-69
2021/07/05 02:59:06;;;;;;;2.43;2.23;;;16.10;99.90;;;;;;5044141;28;20211;-69
2021/07/05 03:01:32;;;;;;;2.60;2.00;;;16.10;99.90;;;;;;5034590;28;20200;-69
2021/07/05 03:03:57;;;;;;;2.77;2.10;;;16.10;99.90;;;;;;5034794;28;20169;-68
2021/07/05 03:06:23;;;;;;;3.27;2.20;;;16.10;99.90;;;;;;5034902;28;20243;-69
2021/07/05 03:08:48;;;;;;;2.23;1.57;;;16.10;99.90;;;;;;5034451;28;20164;-69
2021/07/05 03:11:15;;;;;;;1.93;1.73;;;16.20;99.90;;;;;;5034730;28;20157;-69
2021/07/05 03:13:40;;;;;;;3.17;2.87;;;16.20;99.90;;;;;;5034444;28;20610;-69
2021/07/05 03:16:06;;;;;;;2.70;2.27;;;16.20;99.90;;;;;;5034900;28;20415;-69
2021/07/05 03:18:31;;;;;;;2.70;2.03;;;16.30;99.90;;;;;;5034453;28;20271;-69
2021/07/05 03:20:57;;;;;;;3.73;2.53;;;16.30;99.90;;;;;;5034317;28;20168;-69
2021/07/05 03:23:25;;;;;;;3.53;1.70;;;16.30;99.90;;;;;;5034217;28;20188;-69
2021/07/05 03:25:51;;;;;;;4.07;2.10;;;16.20;99.90;;;;;;5034466;28;20240;-69
2021/07/05 03:28:17;;;;;;;3.87;2.37;;;16.30;99.90;;;;;;5038833;28;20440;-69
2021/07/05 03:30:44;;;;;;;2.20;1.90;;;16.30;99.90;;;;;;5054120;28;20387;-69
2021/07/05 03:33:10;;;;;;;2.97;1.83;;;16.30;99.90;;;;;;5046577;28;20419;-69
2021/07/05 03:35:37;;;;;;;3.60;2.20;;;16.30;99.90;;;;;;5054301;28;20763;-69
2021/07/05 03:38:04;;;;;;;4.40;2.17;;;16.30;99.90;;;;;;5054057;28;20172;-69
2021/07/05 03:40:32;;;;;;;2.60;2.20;;;16.40;99.90;;;;;;5054352;28;20399;-69
2021/07/05 03:42:59;;;;;;;3.00;1.60;;;16.40;99.90;;;;;;5053643;28;20466;-69
2021/07/05 03:45:28;;;;;;;3.40;2.10;;;16.40;99.90;;;;;;5053901;28;20395;-69
2021/07/05 03:47:54;;;;;;;2.10;1.97;;;16.50;99.90;;;;;;5053851;28;20760;-69
2021/07/05 03:50:20;;;;;;;2.40;2.20;;;16.50;99.90;;;;;;5052914;28;20505;-69
2021/07/05 03:52:46;;;;;;;1.80;1.70;;;16.50;99.90;;;;;;5053458;28;20748;-69
2021/07/05 03:55:15;;;;;;;2.60;2.10;;;16.50;99.90;;;;;;5053675;28;20498;-69
2021/07/05 03:57:41;;;;;;;2.40;1.70;;;16.50;99.90;;;;;;5050904;28;20427;-69
2021/07/05 04:00:11;;;;;;;3.00;2.40;;;16.60;99.90;;;;;;5033610;28;20477;-68
2021/07/05 04:02:37;;;;;;;2.77;2.30;;;16.60;99.90;;;;;;5034196;28;20933;-69
2021/07/05 04:05:04;;;;;;;2.23;2.00;;;16.60;99.90;;;;;;5032741;28;20392;-69
2021/07/05 04:07:29;;;;;;;5.27;2.60;;;16.60;99.90;;;;;;5034092;28;20181;-69
2021/07/05 04:09:56;;;;;;;3.20;2.10;;;16.60;99.90;;;;;;5033838;28;20391;-69
2021/07/05 04:12:22;;;;;;;3.70;1.47;;;16.70;99.90;;;;;;5033470;28;20172;-69
2021/07/05 04:14:49;;;;;;;2.63;2.43;;;16.70;99.90;;;;;;5033497;28;20873;-69
2021/07/05 04:17:16;;;;;;;2.47;2.10;;;16.80;99.90;;;;;;5033164;28;20169;-69
2021/07/05 04:19:45;;;;;;;2.60;2.40;;;16.70;99.90;;;;;;5033230;28;20403;-69
2021/07/05 04:22:12;;;;;;;2.87;2.20;;;16.80;99.90;;;;;;5033477;28;20449;-69
2021/07/05 04:24:38;;;;;;;3.57;2.70;;;16.80;99.90;;;;;;5034215;28;20403;-69
2021/07/05 04:27:04;;;;;;;3.20;1.90;;;16.80;99.90;;;;;;5033427;28;20430;-69
2021/07/05 04:29:29;;;;;;;2.77;2.50;;;16.80;99.90;;;;;;5050214;28;20218;-69
2021/07/05 04:31:55;;;;;;;3.67;2.67;;;16.70;99.90;;;;;;5053195;28;20395;-69
2021/07/05 04:34:20;;;;;;;3.27;2.30;;;16.70;99.90;;;;;;5052981;28;20174;-69
2021/07/05 04:36:46;;;;;;;3.70;2.70;;;16.70;99.90;;;;;;5052971;28;20199;-69
2021/07/05 04:39:11;;;;;;;5.67;3.00;;;16.60;99.90;;;;;;5053130;28;20160;-69
2021/07/05 04:41:37;;;;;;;6.13;3.10;;;16.60;99.90;;;;;;5051870;28;20208;-69
2021/07/05 04:44:04;;;;;;;3.47;2.90;;;16.60;99.90;;;;;;5053276;28;20162;-69
2021/07/05 04:46:29;;;;;;;3.13;2.07;;;16.60;99.90;;;;;;5052637;28;20153;-68
2021/07/05 04:48:55;;;;;;;1.83;1.60;;;16.50;99.90;;;;;;5053057;28;20413;-68
2021/07/05 04:51:23;;;;;;;1.30;1.20;;;16.40;99.90;;;;;;5052550;28;20285;-68
2021/07/05 04:53:50;;;;;;;3.07;1.60;;;16.30;99.90;;;;;;5053232;28;20243;-69
2021/07/05 04:56:16;;;;;;;2.07;1.83;;;16.30;99.90;;;;;;5052908;28;20413;-69
2021/07/05 04:58:42;;;;;;;1.60;1.20;;;16.20;99.90;;;;;;5038830;28;20450;-68
2021/07/05 05:01:07;;;;;;;2.40;1.40;;;16.10;99.90;;;;;;5032814;28;20931;-69
2021/07/05 05:03:33;;;;;;;2.50;2.10;;;16.10;99.90;;;;;;5032678;28;20172;-69
2021/07/05 05:05:58;;;;;;;1.50;1.40;;;16.10;99.90;;;;;;5033243;28;20174;-69
2021/07/05 05:08:24;;;;;;;2.80;1.77;;;16.00;99.90;;;;;;5033193;28;20160;-69
2021/07/05 05:10:49;;;;;;;2.33;1.80;;;16.00;99.90;;;;;;5032724;28;20238;-69
2021/07/05 05:13:15;;;;;;;2.20;2.00;;;16.00;99.90;;;;;;5032607;28;20171;-69
2021/07/05 05:15:40;;;;;;;3.70;2.33;;;15.90;99.90;;;;;;5033203;28;20763;-68
2021/07/05 05:18:06;;;;;;;3.30;1.97;;;15.80;99.90;;;;;;5032285;28;20179;-68
2021/07/05 05:20:32;;;;;;;2.77;2.13;;;15.80;99.90;;;;;;5032780;28;20182;-69
2021/07/05 05:22:59;;;;;;;2.03;1.83;;;15.70;99.90;;;;;;5032788;28;20198;-68
2021/07/05 05:25:25;;;;;;;2.93;2.50;;;15.70;99.90;;;;;;5032753;28;20472;-69
2021/07/05 05:27:51;;;;;;;3.50;2.67;;;15.60;99.90;;;;;;5032364;28;20398;-69
2021/07/05 05:30:19;;;;;;;4.80;2.83;;;15.60;99.90;;;;;;5032367;28;20456;-68
2021/07/05 05:32:46;;;;;;;5.43;3.10;;;15.50;99.90;;;;;;5039227;28;20425;-69
2021/07/05 05:35:13;;;;;;;5.50;2.80;;;15.50;99.90;;;;;;5051551;28;20412;-69
2021/07/05 05:37:38;;;;;;;3.00;2.70;;;15.50;99.90;;;;;;5052666;28;20469;-69
2021/07/05 05:40:05;;;;;;;4.27;2.87;;;15.40;99.90;;;;;;5052777;28;20863;-69
2021/07/05 05:42:31;;;;;;;3.60;2.60;;;15.40;99.90;;;;;;5052466;28;20211;-69
2021/07/05 05:44:56;;;;;;;3.27;2.13;;;15.40;99.90;;;;;;5052176;28;20490;-69
2021/07/05 05:47:22;;;;;;;3.67;2.20;;;15.40;99.90;;;;;;5052406;28;20263;-69
2021/07/05 05:49:47;;;;;;;2.70;2.30;;;15.30;99.90;;;;;;5052013;28;20179;-69
2021/07/05 05:52:13;;;;;;;2.30;2.10;;;15.30;99.90;;;;;;5052619;28;20183;-69
2021/07/05 05:54:38;;;;;;;5.67;2.20;;;15.30;99.90;;;;;;5052348;28;20185;-69
2021/07/05 05:57:04;;;;;;;2.47;2.27;;;15.30;99.90;;;;;;5050243;28;20631;-69
2021/07/05 05:59:33;;;;;;;2.77;1.83;;;15.30;99.90;;;;;;5032140;28;20281;-69
2021/07/05 06:01:58;;;;;;;2.30;1.80;;;15.30;99.90;;;;;;5032234;28;20183;-69
2021/07/05 06:04:24;;;;;;;4.30;2.30;;;15.30;99.90;;;;;;5033268;28;20389;-69
2021/07/05 06:06:52;;;;;;;2.33;2.10;;;15.30;99.90;;;;;;5047048;28;20173;-69
2021/07/05 06:09:17;;;;;;;2.67;1.80;;;15.30;99.90;;;;;;5052170;28;20147;-69
2021/07/05 06:11:43;;;;;;;2.10;1.90;;;15.30;99.90;;;;;;5047008;28;20432;-69
2021/07/05 06:14:09;;;;;;;2.27;2.00;;;15.30;99.90;;;;;;5035944;28;20185;-69
2021/07/05 06:16:36;;;;;;;2.73;2.10;;;15.30;99.90;;;;;;5035267;28;20190;-69
2021/07/05 06:19:02;;;;;;;2.83;1.87;;;15.30;99.90;;;;;;5047821;28;20494;-69
2021/07/05 06:21:28;;;;;;;2.00;1.73;;;15.30;99.90;;;;;;5033961;28;20459;-69
2021/07/05 06:23:55;;;;;;;2.43;1.60;;;15.30;99.90;;;;;;5035339;28;20465;-69
2021/07/05 06:26:21;;;;;;;2.07;1.50;;;15.30;99.90;;;;;;5033776;28;20454;-69
2021/07/05 06:28:47;;;;;;;2.40;1.50;;;15.40;99.90;;;;;;5033400;28;20476;-69
2021/07/05 06:31:13;;;;;;;2.67;1.93;;;15.40;99.90;;;;;;5047763;28;20176;-69
2021/07/05 06:33:38;;;;;;;1.40;1.30;;;15.40;99.90;;;;;;5040628;28;20504;-69
2021/07/05 06:36:04;;;;;;;3.30;2.00;;;15.50;99.90;;;;;;5038827;28;20168;-69
2021/07/05 06:38:31;;;;;;;2.13;1.93;;;15.50;99.90;;;;;;5046762;28;20175;-69
2021/07/05 06:40:57;;;;;;;2.03;1.83;;;15.60;99.90;;;;;;5051769;28;20414;-69
2021/07/05 06:43:23;;;;;;;1.67;1.57;;;15.60;99.90;;;;;;5041041;28;20519;-69
2021/07/05 06:45:49;;;;;;;3.73;1.70;;;15.80;99.90;;;;;;5048834;28;20579;-69
2021/07/05 06:48:15;;;;;;;3.47;2.70;;;15.90;99.90;;;;;;5039648;28;20933;-69
2021/07/05 06:50:40;;;;;;;2.83;1.93;;;16.10;99.90;;;;;;5044464;28;20172;-69
2021/07/05 06:53:07;;;;;;;1.80;1.60;;;16.30;99.90;;;;;;5036392;28;20176;-69
2021/07/05 06:55:33;;;;;;;4.53;2.17;;;16.40;99.90;;;;;;5035579;28;20188;-69
2021/07/05 06:57:59;;;;;;;3.70;2.00;;;16.50;99.90;;;;;;5036940;28;20513;-69
2021/07/05 07:00:27;;;;;;;2.13;1.93;;;16.70;99.90;;;;;;5036757;28;20443;-69
2021/07/05 07:02:54;;;;;;;3.90;1.80;;;16.80;99.90;;;;;;5044808;28;20490;-69
2021/07/05 07:05:21;;;;;;;2.80;2.00;;;16.90;99.90;;;;;;5048898;28;20415;-69
2021/07/05 07:07:50;;;;;;;4.80;1.60;;;17.00;99.90;;;;;;5036980;28;20427;-69
2021/07/05 07:10:17;;;;;;;2.67;1.80;;;17.10;99.90;;;;;;5037460;28;20427;-69
2021/07/05 07:12:47;;;;;;;5.80;2.27;;;17.10;99.90;;;;;;5037376;28;20423;-69
2021/07/05 07:15:14;;;;;;;3.10;2.07;;;17.20;99.90;;;;;;5047136;28;20430;-69
2021/07/05 07:17:43;;;;;;;5.17;2.63;;;17.20;99.90;;;;;;5046697;28;20426;-69
2021/07/05 07:20:12;;;;;;;4.00;2.40;;;17.30;99.90;;;;;;5037924;28;20832;-69
2021/07/05 07:22:38;;;;;;;3.47;2.30;;;17.40;99.90;;;;;;5041665;28;20993;-69
2021/07/05 07:25:06;;;;;;;3.43;2.00;;;17.50;99.90;;;;;;5036155;28;20872;-69
2021/07/05 07:27:32;;;;;;;3.80;2.50;;;17.70;99.90;;;;;;5033389;28;20447;-69
2021/07/05 07:29:57;;;;;;;3.73;2.37;;;17.80;99.90;;;;;;5036373;28;20415;-69
2021/07/05 07:32:24;;;;;;;4.60;3.10;;;17.90;99.90;;;;;;5050107;28;20419;-69
2021/07/05 07:34:49;;;;;;;5.00;3.03;;;18.00;99.90;;;;;;5041951;28;20509;-69
2021/07/05 07:37:15;;;;;;;4.10;2.73;;;18.00;99.90;;;;;;5038380;28;20477;-69
2021/07/05 07:39:43;;;;;;;6.50;3.10;;;18.10;99.90;;;;;;5039455;28;20172;-69
2021/07/05 07:42:10;;;;;;;3.40;2.87;;;18.10;99.90;;;;;;5047129;28;20466;-68
2021/07/05 07:44:36;;;;;;;5.17;2.67;;;18.20;99.90;;;;;;5048706;28;20435;-68
2021/07/05 07:47:03;;;;;;;4.83;2.93;;;18.30;99.90;;;;;;5042738;28;20414;-69
2021/07/05 07:49:30;;;;;;;6.93;2.80;;;18.40;99.90;;;;;;5045605;28;20418;-69
2021/07/05 07:51:57;;;;;;;5.73;2.67;;;18.40;99.90;;;;;;5042549;28;20538;-69
2021/07/05 07:54:24;;;;;;;4.37;2.57;;;18.50;99.90;;;;;;5040225;28;20876;-69
2021/07/05 07:56:50;;;;;;;5.30;2.90;;;18.60;99.90;;;;;;5035236;28;20513;-68
2021/07/05 07:59:15;;;;;;;3.97;2.70;;;18.60;99.90;;;;;;5034722;28;20869;-69
2021/07/05 08:01:41;;;;;;;4.23;3.00;;;18.70;99.90;;;;;;5042385;28;20458;-69
2021/07/05 08:04:06;;;;;;;7.10;3.10;;;18.90;99.90;;;;;;5041391;28;20222;-68
2021/07/05 08:06:32;;;;;;;3.80;3.10;;;19.10;99.90;;;;;;5034396;28;20645;-69
2021/07/05 08:08:59;;;;;;;3.20;3.00;;;19.20;99.90;;;;;;5031875;28;20180;-69
2021/07/05 08:11:25;;;;;;;4.17;3.43;;;19.40;99.90;;;;;;5033183;28;20185;-69
2021/07/05 08:13:50;;;;;;;3.93;3.53;;;19.80;99.90;;;;;;5033364;28;20426;-69
2021/07/05 08:16:16;;;;;;;5.27;3.80;;;20.30;99.90;;;;;;5033468;28;20173;-69
2021/07/05 08:18:41;;;;;;;3.30;3.00;;;21.00;99.90;;;;;;5036971;28;20204;-69
2021/07/05 08:21:07;;;;;;;6.20;3.50;;;21.50;99.90;;;;;;5033857;28;20172;-69
2021/07/05 08:23:33;;;;;;;4.53;2.60;;;21.80;99.90;;;;;;5033163;28;20566;-69
2021/07/05 08:25:59;;;;;;;3.10;2.80;;;22.40;99.90;;;;;;5033434;28;20246;-69
2021/07/05 08:28:25;;;;;;;3.30;2.77;;;23.10;99.90;;;;;;5035849;28;20218;-69
2021/07/05 08:30:55;;;;;;;4.43;2.93;;;23.50;99.90;;;;;;5044453;28;20399;-69
2021/07/05 08:33:21;;;;;;;4.63;3.40;;;23.70;99.90;;;;;;5045868;28;20855;-69
2021/07/05 08:35:47;;;;;;;4.63;3.10;;;23.90;99.90;;;;;;5033380;28;20498;-69
2021/07/05 08:38:13;;;;;;;5.30;3.07;;;24.10;99.90;;;;;;5034176;28;20513;-69
2021/07/05 08:40:39;;;;;;;5.07;2.83;;;24.60;99.90;;;;;;5037924;28;20419;-69
2021/07/05 08:43:05;;;;;;;4.53;2.90;;;25.20;99.90;;;;;;5032867;28;20495;-69
2021/07/05 08:45:31;;;;;;;7.07;3.17;;;25.20;99.90;;;;;;5034032;28;20497;-69
2021/07/05 08:47:57;;;;;;;3.67;2.50;;;25.10;99.90;;;;;;5032729;28;20402;-69
2021/07/05 08:50:26;;;;;;;3.50;2.83;;;24.90;99.90;;;;;;5033695;28;20180;-69
2021/07/05 08:52:52;;;;;;;7.97;3.37;;;24.50;99.90;;;;;;5033514;28;20435;-69
2021/07/05 08:55:21;;;;;;;4.33;4.00;;;24.30;99.90;;;;;;5034374;28;20416;-69
2021/07/05 08:57:47;;;;;;;4.63;3.87;;;24.00;99.90;;;;;;5053229;28;20899;-69
2021/07/05 09:00:20;;;;;;;4.83;3.97;;;23.70;99.90;;;;;;5047916;28;20495;-69
2021/07/05 09:02:47;;;;;;;4.03;3.73;;;23.20;99.90;;;;;;5032383;28;20549;-69
2021/07/05 09:05:13;;;;;;;4.87;4.47;;;22.90;99.90;;;;;;5032184;28;20827;-69
2021/07/05 09:07:58;;;;;;;4.67;4.30;;;22.70;99.90;;;;;;5032387;28;20507;-69
2021/07/05 09:10:25;;;;;;;4.53;4.20;;;22.50;99.90;;;;;;5032867;28;20797;-69
2021/07/05 09:13:27;;;;;;;7.27;6.53;;;22.50;99.90;;;;;;5033573;28;20411;-69
2021/07/05 09:15:56;;;;;;;6.00;5.40;;;22.30;99.90;;;;;;5031438;28;20430;-69
2021/07/05 09:21:20;;;;;;;12.17;5.40;;;22.20;99.90;;;;;;5065632;28;20548;-69
2021/07/05 09:24:04;;;;;;;6.03;4.10;;;22.10;99.90;;;;;;5049607;28;20969;-69
2021/07/05 09:26:35;;;;;;;5.20;4.67;;;22.00;99.90;;;;;;5033839;28;20758;-69
2021/07/05 09:29:04;;;;;;;4.43;3.93;;;21.90;99.90;;;;;;5039568;28;20415;-69
2021/07/05 09:31:36;;;;;;;4.53;3.50;;;21.60;99.90;;;;;;5046037;28;20446;-69
2021/07/05 09:34:04;;;;;;;8.20;3.43;;;21.40;99.90;;;;;;5044269;28;20465;-69
2021/07/05 09:36:30;;;;;;;4.13;3.67;;;21.30;99.90;;;;;;5042440;28;20465;-69
2021/07/05 09:38:56;;;;;;;6.03;4.00;;;21.10;99.90;;;;;;5049312;28;20880;-69
2021/07/05 09:41:34;;;;;;;6.43;4.50;;;21.00;99.90;;;;;;5049616;28;20398;-69
2021/07/05 09:44:08;;;;;;;5.90;4.10;;;21.00;99.90;;;;;;5048530;28;20413;-69
2021/07/05 09:49:32;;;;;;;7.37;4.37;;;20.90;99.90;;;;;;5062988;28;20524;-69
2021/07/05 09:52:16;;;;;;;4.50;4.10;;;20.80;99.90;;;;;;5060353;28;20450;-69
2021/07/05 09:54:47;;;;;;;7.57;4.73;;;20.70;99.90;;;;;;5053539;28;20419;-69
2021/07/05 09:57:30;;;;;;;4.60;4.20;;;20.40;99.90;;;;;;5062165;28;20430;-69
2021/07/05 10:03:05;;;;;;;4.60;4.30;;;20.20;99.90;;;;;;5059518;28;20877;-69
2021/07/05 10:08:11;;;;;;;6.80;5.60;;;20.10;99.90;;;;;;5062735;28;20655;-68
2021/07/05 10:10:39;;;;;;;4.87;4.47;;;20.70;99.90;;;;;;5058160;28;20402;-68
2021/07/05 10:13:09;;;;;;;5.20;3.60;;;21.10;99.90;;;;;;5069327;28;20474;-68
2021/07/05 10:15:36;;;;;;;5.57;3.70;;;21.30;99.90;;;;;;5054076;28;20456;-68
2021/07/05 10:18:03;;;;;;;4.47;3.33;;;21.70;99.90;;;;;;5045768;28;20945;-68
2021/07/05 10:20:36;;;;;;;3.10;2.90;;;21.80;99.90;;;;;;5039851;28;20786;-69
2021/07/05 10:23:06;;;;;;;2.90;2.50;;;22.00;99.90;;;;;;5049256;28;20399;-68
2021/07/05 10:25:41;;;;;;;6.87;2.87;;;22.20;99.90;;;;;;5032913;28;20442;-69
2021/07/05 10:28:07;;;;;;;4.03;3.30;;;22.40;99.90;;;;;;5029641;28;20407;-69
2021/07/05 10:30:34;;;;;;;5.40;2.63;;;22.50;99.90;;;;;;5029149;28;20399;-68
2021/07/05 10:33:01;;;;;;;2.40;1.87;;;22.60;99.90;;;;;;5029860;28;20411;-68
2021/07/05 10:35:48;;;;;;;3.60;2.07;;;22.80;99.90;;;;;;5042742;28;20549;-68
2021/07/05 10:40:54;;;;;;;6.93;2.53;;;23.00;99.90;;;;;;5069510;28;20542;-69
2021/07/05 10:43:23;;;;;;;4.33;2.70;;;23.50;99.90;;;;;;5052368;28;20916;-69
2021/07/05 10:45:52;;;;;;;3.00;2.00;;;23.50;99.90;;;;;;5050072;28;20427;-69
2021/07/05 10:48:40;;;;;;;7.43;3.70;;;23.50;99.90;;;;;;5057538;28;20386;-69
2021/07/05 10:51:08;;;;;;;2.40;2.20;;;23.40;99.90;;;;;;5053602;28;20434;-69
2021/07/05 10:56:33;;;;;;;2.33;2.10;;;23.50;99.90;;;;;;5052029;28;20603;-69
2021/07/05 11:01:51;;;;;;;3.53;2.70;;;23.70;99.90;;;;;;5052098;28;20691;-69
2021/07/05 11:06:53;;;;;;;7.63;2.50;;;23.70;99.90;;;;;;5069317;28;20586;-69
2021/07/05 11:09:22;;;;;;;5.63;2.33;;;23.50;99.90;;;;;;5052352;28;20411;-69
2021/07/05 11:11:52;;;;;;;4.57;2.57;;;23.60;99.90;;;;;;5043488;28;20552;-69
2021/07/05 11:27:49;;;;;;;6.10;2.60;;;23.90;98.30;;;;;;5110065;27;20820;-68
2021/07/05 11:35:53;;;;;;;5.93;3.80;;;23.50;96.90;;;;;;5060365;28;20945;-69
2021/07/05 11:38:39;;;;;;;5.43;2.57;;;23.30;96.90;;;;;;5064442;28;20437;-69
2021/07/05 11:41:24;;;;;;;2.90;2.10;;;23.20;97.10;;;;;;5069105;28;20386;-68
2021/07/05 11:43:59;;;;;;;5.37;2.60;;;22.90;97.30;;;;;;5052447;28;20838;-69
2021/07/05 11:49:11;;;;;;;3.30;1.90;;;22.80;97.90;;;;;;5089311;28;21055;-68
2021/07/05 11:51:44;;;;;;;2.50;2.20;;;23.20;99.50;;;;;;5053281;28;20421;-69
2021/07/05 11:54:15;;;;;;;2.40;2.10;;;23.40;98.80;;;;;;5060000;28;20445;-69
2021/07/05 11:56:44;;;;;;;3.60;2.60;;;23.60;98.00;;;;;;5057882;28;20973;-69
2021/07/05 11:59:12;;;;;;;4.70;2.20;;;23.70;97.90;;;;;;5060985;28;20537;-69
2021/07/05 12:01:40;;;;;;;1.93;1.77;;;23.80;96.10;;;;;;5089385;28;20746;-69
2021/07/05 12:04:07;;;;;;;2.63;2.20;;;23.90;98.30;;;;;;5088411;28;20821;-69
2021/07/05 12:06:34;;;;;;;3.17;1.77;;;23.90;95.00;;;;;;5073810;28;20756;-69
2021/07/05 12:09:03;;;;;;;2.47;2.10;;;24.00;96.60;;;;;;5068577;28;20950;-69
2021/07/05 12:16:56;;;;;;;3.87;1.70;;;24.20;94.60;;;;;;5060995;28;20533;-68
2021/07/05 12:19:22;;;;;;;2.53;1.50;;;24.10;92.90;;;;;;5045570;28;20447;-68
2021/07/05 12:21:51;;;;;;;3.87;1.97;;;24.10;95.00;;;;;;5044917;28;20408;-68
2021/07/05 12:29:42;;;;;;;1.90;1.13;;;23.60;92.20;;;;;;5069187;28;20516;-69
2021/07/05 12:32:13;;;;;;;2.73;1.43;;;23.40;92.70;;;;;;5067826;28;20413;-69
2021/07/05 12:35:01;;;;;;;2.30;1.40;;;23.00;93.90;;;;;;5051072;28;20411;-69
2021/07/05 12:45:28;;;;;;;3.53;1.53;;;22.50;94.60;;;;;;5064389;28;20567;-68
2021/07/05 12:48:00;;;;;;;2.50;1.93;;;22.10;96.70;;;;;;5038376;28;20431;-68
2021/07/05 12:50:32;;;;;;;4.50;1.90;;;22.00;96.30;;;;;;5040538;28;20785;-68
2021/07/05 12:56:04;;;;;;;2.10;1.43;;;21.80;96.20;;;;;;5091756;27;20548;-69
2021/07/05 12:58:47;;;;;;;2.33;2.00;;;21.90;99.20;;;;;;5047685;28;20723;-69
2021/07/05 13:01:33;;;;;;;4.00;2.00;;;21.90;97.60;;;;;;5064606;28;20776;-68
2021/07/05 13:04:03;;;;;;;4.27;1.97;;;21.90;99.90;;;;;;5068244;28;20923;-69
2021/07/05 13:06:33;;;;;;;3.73;1.87;;;21.90;98.60;;;;;;5064964;28;20473;-69
2021/07/05 13:09:04;;;;;;;2.37;1.77;;;21.80;97.10;;;;;;5062607;28;20437;-69
2021/07/05 13:14:16;;;;;;;3.67;1.70;;;21.80;98.10;;;;;;5095722;28;20511;-68
2021/07/05 13:16:42;;;;;;;4.17;2.10;;;21.80;97.60;;;;;;5071871;28;20416;-68
2021/07/05 13:19:15;;;;;;;4.23;1.87;;;21.80;97.80;;;;;;5070226;28;20401;-68
2021/07/05 13:21:42;;;;;;;2.30;1.30;;;21.80;98.60;;;;;;5075207;28;20830;-68
2021/07/05 13:24:27;;;;;;;3.73;1.50;;;21.70;96.80;;;;;;5086687;28;20444;-68
2021/07/05 13:27:02;;;;;;;6.80;1.70;;;21.60;98.00;;;;;;5069692;28;20434;-68
2021/07/05 13:32:15;;;;;;;4.27;2.00;;;21.60;97.90;;;;;;5058897;28;20713;-70
2021/07/05 13:34:44;;;;;;;2.20;1.70;;;21.60;98.50;;;;;;5047935;28;20854;-70
2021/07/05 13:37:14;;;;;;;2.70;1.40;;;21.50;99.30;;;;;;5049597;28;20406;-70
2021/07/05 13:39:42;;;;;;;2.30;1.70;;;21.50;98.80;;;;;;5035138;28;20440;-70
2021/07/05 13:44:52;;;;;;;3.20;1.90;;;21.50;98.20;;;;;;5081850;28;20589;-68
2021/07/05 13:50:19;;;;;;;3.77;2.17;;;21.50;98.10;;;;;;5048271;28;20564;-69
2021/07/05 13:52:51;;;;;;;2.60;1.77;;;21.60;98.60;;;;;;5028150;28;20466;-69
2021/07/05 13:58:05;;;;;;;2.33;1.80;;;21.40;97.60;;;;;;5040334;28;21151;-69
2021/07/05 14:00:36;;;;;;;2.60;1.70;;;21.30;98.90;;;;;;5059233;28;20452;-69
2021/07/05 14:03:02;;;;;;;2.43;2.10;;;21.30;99.90;;;;;;5052064;28;20419;-69
2021/07/05 14:05:29;;;;;;;5.63;2.07;;;21.30;99.50;;;;;;5051552;28;20510;-69
2021/07/05 14:07:57;;;;;;;3.00;2.00;;;21.30;98.60;;;;;;5048060;28;20219;-69
2021/07/05 14:10:22;;;;;;;3.13;1.47;;;21.30;99.80;;;;;;5051730;28;20435;-69
2021/07/05 14:12:48;;;;;;;3.50;2.60;;;21.30;99.90;;;;;;5060248;28;20530;-69